MSC Maria Saveria — 3FLE8 — position and weather

sailwx.info

Track history (hours):
 
Tides and Currents Weather Stations Pressure Air Temp Water Temp Dewpoint Dewpoint Depression Visibility Wind Speed Wind Dir Waves Ship Positions

MSC Maria Saveria

Last reported at 2015-Aug-24 16:33 UTC. Time now 2015-Sep-05 14:22 UTC.
Position N 24°09' E 118°24'.
Warning: this ship's position is 11 days out of date.

Length 366 m; draft 12 m.

Type: Ship (hazmat cat A). MMSI: 372400000.

Date/timePositionNaut miles runAvg speedWind from/ knotsBaromVisibWave heightAir tempDewpointWater temp
2015-Aug-24 16:33N 24°09' E 118°24'1515.2
2015-Aug-24 15:33N 24°19' E 118°12'1211.7
2015-Aug-24 14:32N 24°26' E 118°02'0 0.0
2015-Aug-24 11:21N 24°26' E 118°02'0 0.0
2015-Aug-24 08:33N 24°26' E 118°02'0 0.0
2015-Aug-24 05:33N 24°26' E 118°02'0 0.0
2015-Aug-24 01:33N 24°26' E 118°02'0 0.0
2015-Aug-23 20:25N 24°26' E 118°02'2 2.0
2015-Aug-23 19:32N 24°26' E 118°04'10 8.1
2015-Aug-23 18:22N 24°19' E 118°11'7 7.9
2015-Aug-23 17:32N 24°14' E 118°16'10 9.4
2015-Aug-23 16:31N 24°08' E 118°24'8 8.8
2015-Aug-23 15:34N 23°60' E 118°20'10 9.4
2015-Aug-23 14:30N 23°52' E 118°14'10 9.8
2015-Aug-23 13:31N 23°45' E 118°07'10 9.4
2015-Aug-23 12:30N 23°38' E 117°60'18 9.3
2015-Aug-23 10:33N 23°26' E 117°45'9 8.8
2015-Aug-23 09:29N 23°18' E 117°39'9 9.5
2015-Aug-23 08:33N 23°11' E 117°33'10 9.7
2015-Aug-23 07:34N 23°04' E 117°27'10 9.5
2015-Aug-23 06:33N 22°57' E 117°20'30 9.0
2015-Aug-23 03:15N 22°38' E 116°54'138 3.0
2015-Aug-21 05:30N 22°14' E 114°27'1010.7
2015-Aug-21 04:33N 22°07' E 114°19'10 8.2
2015-Aug-21 03:24N 22°13' E 114°10'8 9.3
2015-Aug-21 02:33N 22°20' E 114°07'0 0.5
2015-Aug-21 01:29N 22°20' E 114°07'0 0.0
2015-Aug-21 00:29N 22°20' E 114°07'0 0.0
2015-Aug-20 23:26N 22°20' E 114°07'0 0.0
2015-Aug-20 22:11N 22°20' E 114°07'0 0.0
2015-Aug-20 21:32N 22°20' E 114°07'0 0.0
2015-Aug-20 19:32N 22°20' E 114°07'0 0.0
2015-Aug-20 18:23N 22°20' E 114°07'0 0.0
2015-Aug-20 17:29N 22°20' E 114°07'0 0.0
2015-Aug-20 16:23N 22°20' E 114°07'0 0.0
2015-Aug-20 15:29N 22°20' E 114°07'0 0.0
2015-Aug-20 14:29N 22°20' E 114°07'3 2.8
2015-Aug-20 13:33N 22°18' E 114°06'12 6.0
2015-Aug-20 11:28N 22°07' E 114°13'6 5.4
2015-Aug-20 10:26N 22°07' E 114°07'5 5.7
2015-Aug-20 09:33N 22°03' E 114°04'13 4.0
2015-Aug-20 06:10N 22°07' E 113°51'914.7
2015-Aug-20 05:33N 22°16' E 113°48'1313.4
2015-Aug-20 04:33N 22°29' E 113°52'1 0.0
2015-Aug-19 11:33N 22°29' E 113°52'0 0.0
2015-Aug-19 10:30N 22°29' E 113°52'4 4.8
2015-Aug-19 09:33N 22°25' E 113°51'1212.4
2015-Aug-19 08:34N 22°13' E 113°50'1210.4
2015-Aug-19 07:23N 22°01' E 113°53'  
2015-Aug-16 02:26N 21°59' E 114°24'145 5.2
2015-Aug-14 22:32N 22°43' E 116°53'  
Track history (hours):
 
Tides and Currents Weather Stations Pressure Air Temp Water Temp Dewpoint Dewpoint Depression Visibility Wind Speed Wind Dir Waves Ship Positions

MSC Maria Saveria

Last reported at 2015-Aug-24 16:33 UTC. Time now 2015-Sep-05 14:22 UTC.
Position N 24°09' E 118°24'.
Warning: this ship's position is 11 days out of date.

Length 366 m; draft 12 m.

Type: Ship (hazmat cat A). MMSI: 372400000.

Date/timePositionNaut miles runAvg speedWind from/ knotsBaromVisibWave heightAir tempDewpointWater temp
2015-Aug-24 16:33N 24°09' E 118°24'1515.2
2015-Aug-24 15:33N 24°19' E 118°12'1211.7
2015-Aug-24 14:32N 24°26' E 118°02'0 0.0
2015-Aug-24 11:21N 24°26' E 118°02'0 0.0
2015-Aug-24 08:33N 24°26' E 118°02'0 0.0
2015-Aug-24 05:33N 24°26' E 118°02'0 0.0
2015-Aug-24 01:33N 24°26' E 118°02'0 0.0
2015-Aug-23 20:25N 24°26' E 118°02'2 2.0
2015-Aug-23 19:32N 24°26' E 118°04'10 8.1
2015-Aug-23 18:22N 24°19' E 118°11'7 7.9
2015-Aug-23 17:32N 24°14' E 118°16'10 9.4
2015-Aug-23 16:31N 24°08' E 118°24'8 8.8
2015-Aug-23 15:34N 23°60' E 118°20'10 9.4
2015-Aug-23 14:30N 23°52' E 118°14'10 9.8
2015-Aug-23 13:31N 23°45' E 118°07'10 9.4
2015-Aug-23 12:30N 23°38' E 117°60'18 9.3
2015-Aug-23 10:33N 23°26' E 117°45'9 8.8
2015-Aug-23 09:29N 23°18' E 117°39'9 9.5
2015-Aug-23 08:33N 23°11' E 117°33'10 9.7
2015-Aug-23 07:34N 23°04' E 117°27'10 9.5
2015-Aug-23 06:33N 22°57' E 117°20'30 9.0
2015-Aug-23 03:15N 22°38' E 116°54'138 3.0
2015-Aug-21 05:30N 22°14' E 114°27'1010.7
2015-Aug-21 04:33N 22°07' E 114°19'10 8.2
2015-Aug-21 03:24N 22°13' E 114°10'8 9.3
2015-Aug-21 02:33N 22°20' E 114°07'0 0.5
2015-Aug-21 01:29N 22°20' E 114°07'0 0.0
2015-Aug-21 00:29N 22°20' E 114°07'0 0.0
2015-Aug-20 23:26N 22°20' E 114°07'0 0.0
2015-Aug-20 22:11N 22°20' E 114°07'0 0.0
2015-Aug-20 21:32N 22°20' E 114°07'0 0.0
2015-Aug-20 19:32N 22°20' E 114°07'0 0.0
2015-Aug-20 18:23N 22°20' E 114°07'0 0.0
2015-Aug-20 17:29N 22°20' E 114°07'0 0.0
2015-Aug-20 16:23N 22°20' E 114°07'0 0.0
2015-Aug-20 15:29N 22°20' E 114°07'0 0.0
2015-Aug-20 14:29N 22°20' E 114°07'3 2.8
2015-Aug-20 13:33N 22°18' E 114°06'12 6.0
2015-Aug-20 11:28N 22°07' E 114°13'6 5.4
2015-Aug-20 10:26N 22°07' E 114°07'5 5.7
2015-Aug-20 09:33N 22°03' E 114°04'13 4.0
2015-Aug-20 06:10N 22°07' E 113°51'914.7
2015-Aug-20 05:33N 22°16' E 113°48'1313.4
2015-Aug-20 04:33N 22°29' E 113°52'1 0.0
2015-Aug-19 11:33N 22°29' E 113°52'0 0.0
2015-Aug-19 10:30N 22°29' E 113°52'4 4.8
2015-Aug-19 09:33N 22°25' E 113°51'1212.4
2015-Aug-19 08:34N 22°13' E 113°50'1210.4
2015-Aug-19 07:23N 22°01' E 113°53'  
2015-Aug-16 02:26N 21°59' E 114°24'145 5.2
2015-Aug-14 22:32N 22°43' E 116°53'  

Dump ship's entire track history